Time;durP1;ratioP1;P1;durP2;ratioP2;P2;SDS_P1;SDS_P2;PMS_P1;PMS_P2;Temp;Humidity;BMP_temperature;BMP_pressure;BME280_temperature;BME280_humidity;BME280_pressure;Samples;Min_cycle;Max_cycle;Signal;HPM_P1;HPM_P2
2023/04/07 00:01:43;;;;;;;14.25;12.88;;;6.60;99.90;;;;;;6090556;23;20383;-72
2023/04/07 00:04:11;;;;;;;14.55;13.13;;;6.60;99.90;;;;;;6090182;23;20193;-71
2023/04/07 00:06:39;;;;;;;14.07;12.57;;;6.60;99.90;;;;;;6067460;23;20221;-71
2023/04/07 00:09:06;;;;;;;13.48;12.07;;;6.50;99.90;;;;;;6090259;23;20219;-71
2023/04/07 00:11:33;;;;;;;14.75;13.20;;;6.50;99.90;;;;;;6062083;23;20216;-71
2023/04/07 00:14:00;;;;;;;14.60;13.20;;;6.40;99.90;;;;;;6061486;23;20600;-71
2023/04/07 00:16:27;;;;;;;14.40;12.90;;;6.40;99.90;;;;;;6081109;23;20675;-71
2023/04/07 00:18:54;;;;;;;14.60;13.23;;;6.40;99.90;;;;;;6079170;23;20262;-72
2023/04/07 00:21:23;;;;;;;14.80;12.82;;;6.40;99.90;;;;;;6085739;23;20185;-71
2023/04/07 00:23:51;;;;;;;13.95;12.63;;;6.50;99.90;;;;;;6089574;23;20216;-71
2023/04/07 00:26:18;;;;;;;13.50;12.15;;;6.50;99.90;;;;;;6072371;23;20577;-72
2023/04/07 00:28:45;;;;;;;13.30;12.00;;;6.80;99.90;;;;;;6070733;23;20223;-72
2023/04/07 00:31:12;;;;;;;13.23;11.93;;;6.50;99.90;;;;;;6090096;23;20192;-72
2023/04/07 00:33:39;;;;;;;13.07;11.77;;;6.50;99.90;;;;;;6089902;23;20196;-72
2023/04/07 00:36:06;;;;;;;13.13;11.82;;;6.40;99.90;;;;;;6088685;23;20192;-72
2023/04/07 00:38:35;;;;;;;11.63;10.43;;;6.40;99.90;;;;;;6084094;23;20212;-72
2023/04/07 00:41:02;;;;;;;11.93;10.73;;;6.40;99.90;;;;;;6061710;23;20571;-71
2023/04/07 00:43:29;;;;;;;11.63;9.93;;;6.30;99.90;;;;;;6061549;23;20650;-72
2023/04/07 00:45:56;;;;;;;12.68;11.20;;;6.30;99.90;;;;;;6076391;23;20218;-72
2023/04/07 00:48:23;;;;;;;11.90;10.80;;;6.30;99.90;;;;;;6089364;23;20209;-71
2023/04/07 00:50:51;;;;;;;12.75;11.40;;;6.60;99.90;;;;;;6089304;23;20196;-71
2023/04/07 00:53:19;;;;;;;13.07;11.25;;;6.30;99.90;;;;;;6089934;23;20606;-72
2023/04/07 00:55:48;;;;;;;13.57;12.02;;;6.30;99.90;;;;;;6079386;23;20244;-71
2023/04/07 00:58:16;;;;;;;12.50;11.20;;;6.60;99.90;;;;;;6062997;23;20210;-71
2023/04/07 01:00:51;;;;;;;13.15;11.75;;;6.50;99.90;;;;;;6090053;23;20682;-72
2023/04/07 01:03:23;;;;;;;11.85;10.65;;;6.30;99.90;;;;;;6090154;23;20187;-72
2023/04/07 01:05:54;;;;;;;12.02;10.77;;;6.30;99.90;;;;;;6077783;23;20300;-71
2023/04/07 01:08:28;;;;;;;11.23;10.18;;;6.30;99.90;;;;;;6063910;23;20216;-72
2023/04/07 01:11:02;;;;;;;12.23;11.02;;;6.30;99.90;;;;;;6088767;23;20662;-72
2023/04/07 01:13:34;;;;;;;12.20;10.88;;;6.30;99.90;;;;;;6082390;23;20189;-72
2023/04/07 01:16:04;;;;;;;11.27;10.18;;;6.30;99.90;;;;;;6088288;23;20271;-71
2023/04/07 01:18:33;;;;;;;12.23;10.10;;;6.20;99.90;;;;;;6074825;23;20220;-72
2023/04/07 01:21:04;;;;;;;10.65;9.55;;;6.20;99.90;;;;;;6086868;23;20188;-72
2023/04/07 01:23:52;;;;;;;14.07;10.48;;;6.30;99.90;;;;;;6080730;23;20186;-71
2023/04/07 01:26:24;;;;;;;10.77;9.77;;;6.30;99.90;;;;;;6077761;23;20302;-71
2023/04/07 01:29:12;;;;;;;11.73;10.65;;;6.30;99.90;;;;;;6085632;23;20719;-72
2023/04/07 01:31:41;;;;;;;10.73;9.60;;;6.30;99.90;;;;;;6089450;23;20498;-71
2023/04/07 01:34:11;;;;;;;9.90;8.90;;;6.20;99.90;;;;;;6090774;23;20197;-71
2023/04/07 01:36:39;;;;;;;9.32;8.52;;;6.20;99.90;;;;;;6091779;23;20209;-71
2023/04/07 01:39:07;;;;;;;9.55;8.55;;;6.60;99.90;;;;;;6068955;23;20243;-72
2023/04/07 01:41:35;;;;;;;9.75;8.85;;;6.60;99.90;;;;;;6073323;23;20718;-71
2023/04/07 01:44:03;;;;;;;9.32;8.43;;;6.20;99.90;;;;;;6090226;23;20262;-72
2023/04/07 01:46:30;;;;;;;10.20;9.27;;;6.20;99.90;;;;;;6091299;23;20217;-71
2023/04/07 01:49:00;;;;;;;9.85;8.95;;;6.20;99.90;;;;;;6070962;23;20358;-73
2023/04/07 01:51:28;;;;;;;11.10;10.00;;;6.10;99.90;;;;;;6071389;23;20188;-73
2023/04/07 01:53:56;;;;;;;10.35;9.35;;;6.10;99.90;;;;;;6091261;23;20590;-70
2023/04/07 01:56:24;;;;;;;10.57;9.48;;;6.20;99.90;;;;;;6091359;23;20271;-70
2023/04/07 01:58:50;;;;;;;10.82;9.82;;;6.20;99.90;;;;;;6086309;23;20217;-70
2023/04/07 02:01:18;;;;;;;12.20;10.63;;;6.10;99.90;;;;;;6089991;23;20189;-70
2023/04/07 02:03:54;;;;;;;11.35;10.20;;;6.10;99.90;;;;;;6072710;23;20272;-73
2023/04/07 02:06:31;;;;;;;11.15;9.82;;;6.10;99.90;;;;;;6062507;23;20209;-72
2023/04/07 02:09:04;;;;;;;10.77;9.68;;;6.20;99.90;;;;;;6082621;23;20209;-70
2023/04/07 02:11:34;;;;;;;10.30;9.20;;;6.50;99.90;;;;;;6088208;23;20267;-70
2023/04/07 02:14:03;;;;;;;11.20;9.95;;;6.20;99.90;;;;;;6091164;23;20196;-70
2023/04/07 02:16:31;;;;;;;10.93;9.90;;;6.20;99.90;;;;;;6091515;23;20189;-70
2023/04/07 02:18:59;;;;;;;10.45;9.45;;;6.50;99.90;;;;;;6071232;23;20285;-70
2023/04/07 02:21:29;;;;;;;11.18;9.98;;;6.30;99.90;;;;;;6075982;23;20565;-70
2023/04/07 02:23:56;;;;;;;11.18;9.57;;;6.60;99.90;;;;;;6090940;23;20213;-72
2023/04/07 02:26:23;;;;;;;10.80;9.70;;;6.30;99.90;;;;;;6089345;23;20238;-70
2023/04/07 02:28:51;;;;;;;10.93;9.82;;;6.30;99.90;;;;;;6089580;23;20220;-70
2023/04/07 02:31:18;;;;;;;11.60;10.27;;;6.30;99.90;;;;;;6078724;23;20683;-70
2023/04/07 02:33:45;;;;;;;10.50;9.50;;;6.30;99.90;;;;;;6078236;23;20242;-70
2023/04/07 02:36:12;;;;;;;10.40;9.35;;;6.30;99.90;;;;;;6091302;23;20189;-70
2023/04/07 02:38:40;;;;;;;11.43;10.32;;;6.30;99.90;;;;;;6075833;23;20263;-70
2023/04/07 02:41:07;;;;;;;12.07;9.90;;;6.30;99.90;;;;;;6071320;23;20197;-72
2023/04/07 02:43:34;;;;;;;11.00;9.88;;;6.30;99.90;;;;;;6078194;23;20189;-72
2023/04/07 02:46:01;;;;;;;10.77;9.68;;;6.30;99.90;;;;;;6090930;23;20266;-72
2023/04/07 02:48:28;;;;;;;10.88;9.88;;;6.30;99.90;;;;;;6090304;23;20577;-71
2023/04/07 02:50:56;;;;;;;11.35;9.80;;;6.30;99.90;;;;;;6085258;23;20214;-72
2023/04/07 02:53:23;;;;;;;10.50;9.45;;;6.30;99.90;;;;;;6061966;23;20193;-72
2023/04/07 02:55:51;;;;;;;11.45;10.32;;;6.20;99.90;;;;;;6079868;23;20658;-72
2023/04/07 02:58:18;;;;;;;11.75;9.95;;;6.30;99.90;;;;;;6079756;23;20210;-72
2023/04/07 03:00:47;;;;;;;11.30;10.20;;;6.30;99.90;;;;;;6066523;23;20196;-72
2023/04/07 03:03:14;;;;;;;11.32;9.93;;;6.30;99.90;;;;;;6090964;23;20245;-72
2023/04/07 03:05:42;;;;;;;10.25;9.35;;;6.30;99.90;;;;;;6091073;23;20188;-72
2023/04/07 03:08:09;;;;;;;12.15;10.73;;;6.30;99.90;;;;;;6090671;23;20680;-72
2023/04/07 03:10:36;;;;;;;11.25;9.95;;;6.30;99.90;;;;;;6089939;23;20273;-72
2023/04/07 03:13:05;;;;;;;12.82;11.60;;;6.30;99.90;;;;;;6090434;23;20545;-72
2023/04/07 03:15:32;;;;;;;12.80;10.52;;;6.30;99.90;;;;;;6090896;23;20188;-71
2023/04/07 03:17:59;;;;;;;11.80;10.50;;;6.30;99.90;;;;;;6084624;23;20209;-71
2023/04/07 03:20:26;;;;;;;11.88;10.40;;;6.30;99.90;;;;;;6062506;23;20227;-72
2023/04/07 03:22:53;;;;;;;10.57;9.55;;;6.30;99.90;;;;;;6090637;23;20211;-71
2023/04/07 03:25:20;;;;;;;10.82;9.73;;;6.30;99.90;;;;;;6089855;23;20196;-71
2023/04/07 03:27:48;;;;;;;10.70;9.70;;;6.30;99.90;;;;;;6087397;23;20232;-72
2023/04/07 03:30:16;;;;;;;14.02;11.20;;;6.30;99.90;;;;;;6089093;23;20204;-72
2023/04/07 03:32:44;;;;;;;11.55;10.40;;;6.30;99.90;;;;;;6089109;23;20207;-71
2023/04/07 03:35:11;;;;;;;11.73;10.60;;;6.30;99.90;;;;;;6091416;23;20270;-71
2023/04/07 03:37:38;;;;;;;11.68;10.48;;;6.70;99.90;;;;;;6088858;23;20196;-72
2023/04/07 03:40:06;;;;;;;10.95;9.77;;;6.40;99.90;;;;;;6077394;23;20645;-72
2023/04/07 03:42:33;;;;;;;11.85;10.65;;;6.40;99.90;;;;;;6066086;23;20194;-72
2023/04/07 03:45:01;;;;;;;11.18;10.00;;;6.70;99.90;;;;;;6062392;23;20410;-72
2023/04/07 03:47:29;;;;;;;12.18;10.88;;;6.50;99.90;;;;;;6062348;23;20244;-72
2023/04/07 03:49:57;;;;;;;11.02;10.00;;;6.50;99.90;;;;;;6069634;23;20216;-72
2023/04/07 03:52:23;;;;;;;11.68;10.45;;;6.50;99.90;;;;;;6085499;23;20190;-72
2023/04/07 03:54:50;;;;;;;11.02;9.50;;;6.70;99.90;;;;;;6061840;23;20202;-72
2023/04/07 03:57:18;;;;;;;11.90;10.70;;;6.50;99.90;;;;;;6062631;23;20213;-72
2023/04/07 03:59:46;;;;;;;11.40;10.30;;;6.50;99.90;;;;;;6083783;23;20276;-72
2023/04/07 04:02:13;;;;;;;11.00;9.82;;;6.50;99.90;;;;;;6087705;23;20193;-72
2023/04/07 04:04:41;;;;;;;11.68;10.48;;;6.50;99.90;;;;;;6090577;23;20195;-72
2023/04/07 04:07:09;;;;;;;12.13;10.98;;;6.50;99.90;;;;;;6090753;23;20212;-72
2023/04/07 04:09:36;;;;;;;12.05;10.20;;;6.50;99.90;;;;;;6067289;23;20241;-72
2023/04/07 04:12:03;;;;;;;10.82;9.73;;;6.50;99.90;;;;;;6062084;23;20686;-72
2023/04/07 04:14:31;;;;;;;12.88;10.75;;;6.50;99.90;;;;;;6064596;23;20195;-72
2023/04/07 04:16:58;;;;;;;12.13;10.93;;;6.40;99.90;;;;;;6089753;23;20196;-72
2023/04/07 04:19:25;;;;;;;11.13;10.02;;;6.50;99.90;;;;;;6089766;23;20266;-72
2023/04/07 04:21:53;;;;;;;11.63;10.43;;;6.50;99.90;;;;;;6077567;23;20292;-72
2023/04/07 04:24:20;;;;;;;12.52;11.23;;;6.50;99.90;;;;;;6090853;23;20272;-72
2023/04/07 04:26:47;;;;;;;13.60;11.05;;;6.50;99.90;;;;;;6089916;23;20213;-72
2023/04/07 04:29:15;;;;;;;12.07;10.82;;;6.60;99.90;;;;;;6079889;23;20324;-72
2023/04/07 04:31:42;;;;;;;12.15;10.95;;;6.60;99.90;;;;;;6075807;23;20268;-71
2023/04/07 04:34:09;;;;;;;12.50;10.40;;;6.60;99.90;;;;;;6061810;23;20220;-72
2023/04/07 04:36:36;;;;;;;12.88;11.63;;;6.70;99.90;;;;;;6064086;23;20194;-71
2023/04/07 04:39:05;;;;;;;12.27;10.98;;;6.90;99.90;;;;;;6075515;23;20267;-71
2023/04/07 04:41:32;;;;;;;12.68;11.35;;;6.60;99.90;;;;;;6074522;23;20264;-71
2023/04/07 04:43:59;;;;;;;12.52;11.32;;;6.90;99.90;;;;;;6090247;23;20198;-71
2023/04/07 04:46:26;;;;;;;10.88;9.77;;;6.50;99.90;;;;;;6091799;23;20592;-71
2023/04/07 04:48:53;;;;;;;11.25;10.25;;;6.90;99.90;;;;;;6078310;23;20210;-71
2023/04/07 04:51:21;;;;;;;15.68;11.10;;;6.60;99.90;;;;;;6072273;23;20248;-71
2023/04/07 04:53:48;;;;;;;13.27;11.98;;;6.50;99.90;;;;;;6091455;23;20592;-71
2023/04/07 04:56:17;;;;;;;12.55;11.30;;;6.50;99.90;;;;;;6091403;23;20198;-71
2023/04/07 04:58:45;;;;;;;12.90;11.63;;;6.50;99.90;;;;;;6079342;23;20215;-71
2023/04/07 05:01:12;;;;;;;12.27;11.00;;;6.60;99.90;;;;;;6070982;23;20192;-71
2023/04/07 05:03:39;;;;;;;13.52;12.13;;;6.60;99.90;;;;;;6091725;23;20192;-71
2023/04/07 05:06:07;;;;;;;11.98;10.77;;;6.60;99.90;;;;;;6091690;23;20185;-71
2023/04/07 05:08:34;;;;;;;11.95;10.75;;;6.60;99.90;;;;;;6090098;23;20212;-71
2023/04/07 05:11:02;;;;;;;12.48;10.75;;;6.80;99.90;;;;;;6088205;23;20596;-71
2023/04/07 05:13:30;;;;;;;12.32;10.85;;;6.90;99.90;;;;;;6090385;23;20192;-71
2023/04/07 05:15:57;;;;;;;11.65;10.50;;;6.50;99.90;;;;;;6091868;23;20185;-71
2023/04/07 05:18:25;;;;;;;10.90;9.80;;;6.80;99.90;;;;;;6090737;23;20770;-71
2023/04/07 05:20:51;;;;;;;12.70;11.43;;;6.90;99.90;;;;;;6080856;23;20192;-71
2023/04/07 05:23:18;;;;;;;13.55;11.13;;;6.60;99.90;;;;;;6089639;23;20195;-71
2023/04/07 05:25:46;;;;;;;12.30;11.10;;;6.60;99.90;;;;;;6086732;23;20194;-71
2023/04/07 05:28:13;;;;;;;11.73;10.57;;;6.60;99.90;;;;;;6088892;23;20229;-71
2023/04/07 05:30:41;;;;;;;12.38;10.90;;;6.60;99.90;;;;;;6074574;23;20197;-71
2023/04/07 05:33:09;;;;;;;11.90;10.70;;;6.60;99.90;;;;;;6091092;23;20196;-71
2023/04/07 05:35:36;;;;;;;11.70;10.60;;;7.00;99.90;;;;;;6091768;23;20674;-71
2023/04/07 05:38:03;;;;;;;12.10;10.80;;;6.60;99.90;;;;;;6090009;23;20215;-71
2023/04/07 05:40:30;;;;;;;12.52;11.32;;;6.70;99.90;;;;;;6071398;23;20216;-72
2023/04/07 05:42:57;;;;;;;12.32;11.13;;;6.70;99.90;;;;;;6093316;23;20282;-73
2023/04/07 05:45:24;;;;;;;12.77;11.50;;;6.70;99.90;;;;;;6121177;23;20189;-72
2023/04/07 05:47:53;;;;;;;12.48;10.52;;;6.70;99.90;;;;;;6120781;23;20585;-72
2023/04/07 05:50:20;;;;;;;12.13;10.93;;;6.80;99.90;;;;;;6070962;23;20190;-72
2023/04/07 05:52:47;;;;;;;12.90;11.15;;;6.80;99.90;;;;;;6091220;23;20193;-72
2023/04/07 05:55:14;;;;;;;11.70;10.27;;;6.80;99.90;;;;;;6091181;23;20267;-72
2023/04/07 05:57:41;;;;;;;12.23;10.93;;;6.70;99.90;;;;;;6088450;23;20214;-72
2023/04/07 06:00:09;;;;;;;11.98;10.77;;;6.70;99.90;;;;;;6078156;23;20530;-72
2023/04/07 06:02:38;;;;;;;11.32;9.73;;;6.70;99.90;;;;;;6090888;23;20199;-72
2023/04/07 06:05:07;;;;;;;12.98;11.27;;;6.60;99.90;;;;;;6091378;23;20514;-71
2023/04/07 06:07:34;;;;;;;12.35;11.05;;;6.60;99.90;;;;;;6090357;23;20661;-72
2023/04/07 06:10:01;;;;;;;12.38;11.07;;;6.60;99.90;;;;;;6065625;23;20191;-72
2023/04/07 06:12:28;;;;;;;11.63;10.48;;;6.60;99.90;;;;;;6088678;23;20201;-73
2023/04/07 06:14:56;;;;;;;12.80;11.50;;;6.90;99.90;;;;;;6062806;23;20212;-72
2023/04/07 06:17:24;;;;;;;13.05;11.75;;;6.70;99.90;;;;;;6062724;23;20210;-72
2023/04/07 06:19:51;;;;;;;12.60;11.20;;;6.70;99.90;;;;;;6086591;23;20252;-72
2023/04/07 06:22:19;;;;;;;13.10;11.85;;;6.70;99.90;;;;;;6062594;23;20190;-72
2023/04/07 06:24:46;;;;;;;12.65;11.35;;;7.10;99.90;;;;;;6090533;23;20233;-72
2023/04/07 06:27:13;;;;;;;12.82;11.63;;;6.80;99.90;;;;;;6091485;23;20206;-72
2023/04/07 06:29:40;;;;;;;12.95;11.65;;;6.80;99.90;;;;;;6068497;23;20193;-72
2023/04/07 06:32:07;;;;;;;12.38;11.05;;;6.80;99.90;;;;;;6089178;23;20292;-72
2023/04/07 06:34:35;;;;;;;12.73;11.38;;;6.70;99.90;;;;;;6091525;23;20184;-72
2023/04/07 06:37:04;;;;;;;11.35;10.25;;;6.80;99.90;;;;;;6090403;23;20191;-72
2023/04/07 06:39:33;;;;;;;12.32;11.05;;;6.80;99.90;;;;;;6090744;23;20184;-72
2023/04/07 06:42:00;;;;;;;11.70;10.60;;;6.90;99.90;;;;;;6090622;23;20196;-72
2023/04/07 06:44:27;;;;;;;11.55;10.40;;;6.90;99.90;;;;;;6091875;23;20213;-72
2023/04/07 06:46:54;;;;;;;11.05;9.95;;;7.10;99.90;;;;;;6091262;23;20549;-72
2023/04/07 06:49:21;;;;;;;11.75;10.70;;;6.80;99.90;;;;;;6090833;23;20186;-72
2023/04/07 06:51:48;;;;;;;11.90;10.57;;;7.20;99.90;;;;;;6085845;23;20281;-72
2023/04/07 06:54:16;;;;;;;13.23;11.43;;;6.90;99.90;;;;;;6091314;23;20189;-72
2023/04/07 06:56:44;;;;;;;12.57;11.35;;;6.90;99.90;;;;;;6091201;23;20250;-72
2023/04/07 06:59:11;;;;;;;12.10;10.80;;;7.30;99.90;;;;;;6090240;23;20244;-72
2023/04/07 07:01:38;;;;;;;12.85;11.55;;;7.10;99.90;;;;;;6068917;23;20574;-72
2023/04/07 07:04:05;;;;;;;12.32;11.13;;;7.10;99.90;;;;;;6062236;23;20705;-72
2023/04/07 07:06:33;;;;;;;13.00;11.70;;;7.20;99.90;;;;;;6090190;23;20887;-72
2023/04/07 07:09:01;;;;;;;11.32;9.57;;;6.80;99.90;;;;;;6090098;23;20258;-72
2023/04/07 07:11:29;;;;;;;11.88;10.68;;;7.20;99.90;;;;;;6076932;23;20273;-72
2023/04/07 07:13:57;;;;;;;12.27;11.07;;;7.50;99.90;;;;;;6090044;23;20200;-72
2023/04/07 07:16:25;;;;;;;12.65;11.35;;;7.20;99.90;;;;;;6091435;23;20634;-72
2023/04/07 07:18:52;;;;;;;12.65;11.45;;;7.20;99.90;;;;;;6080631;23;20715;-72
2023/04/07 07:21:21;;;;;;;12.07;10.77;;;7.20;99.90;;;;;;6080587;23;20220;-72
2023/04/07 07:23:48;;;;;;;12.20;10.70;;;7.30;99.90;;;;;;6090038;23;20281;-72
2023/04/07 07:26:15;;;;;;;11.00;10.00;;;7.50;99.90;;;;;;6083744;23;20196;-72
2023/04/07 07:28:42;;;;;;;12.05;10.77;;;7.70;99.90;;;;;;6082504;23;20631;-72
2023/04/07 07:31:13;;;;;;;10.80;9.80;;;8.10;99.90;;;;;;6078076;23;20216;-72
2023/04/07 07:33:42;;;;;;;11.63;10.52;;;8.50;99.90;;;;;;6091021;23;20522;-72
2023/04/07 07:36:10;;;;;;;10.32;9.30;;;9.10;99.90;;;;;;6091114;23;20184;-72
2023/04/07 07:38:37;;;;;;;9.77;8.98;;;9.20;99.90;;;;;;6087295;23;20217;-72
2023/04/07 07:41:04;;;;;;;9.65;8.85;;;9.60;99.90;;;;;;6089512;23;20192;-72
2023/04/07 07:43:31;;;;;;;10.35;9.45;;;9.80;99.90;;;;;;6090790;23;20194;-72
2023/04/07 07:45:58;;;;;;;10.20;9.20;;;10.30;99.90;;;;;;6091175;23;20192;-72
2023/04/07 07:48:27;;;;;;;10.60;9.70;;;10.20;99.90;;;;;;6084139;23;20723;-72
2023/04/07 07:50:55;;;;;;;10.85;9.95;;;10.00;99.90;;;;;;6074171;23;20323;-72
2023/04/07 07:53:23;;;;;;;10.10;9.20;;;10.50;99.90;;;;;;6089616;23;20216;-72
2023/04/07 07:55:50;;;;;;;10.13;9.23;;;10.10;99.90;;;;;;6091264;23;20188;-72
2023/04/07 07:58:17;;;;;;;10.35;9.35;;;10.40;99.90;;;;;;6089364;23;20238;-72
2023/04/07 08:00:45;;;;;;;10.68;9.63;;;10.00;99.90;;;;;;6083834;23;20184;-73
2023/04/07 08:03:12;;;;;;;10.38;9.48;;;10.00;99.90;;;;;;6090812;23;20656;-72
2023/04/07 08:05:41;;;;;;;10.50;9.60;;;10.40;99.90;;;;;;6090771;23;20188;-72
2023/04/07 08:08:08;;;;;;;10.35;9.35;;;10.20;99.90;;;;;;6088868;23;20583;-72
2023/04/07 08:10:35;;;;;;;9.13;8.32;;;10.40;99.90;;;;;;6079776;23;20189;-72
2023/04/07 08:13:04;;;;;;;9.63;8.82;;;10.50;99.90;;;;;;6081539;23;20184;-72
2023/04/07 08:15:30;;;;;;;9.63;8.82;;;10.90;99.90;;;;;;6091084;23;20267;-72
2023/04/07 08:17:58;;;;;;;9.70;8.80;;;10.80;99.90;;;;;;6091145;23;20715;-72
2023/04/07 08:20:26;;;;;;;9.35;8.45;;;10.60;99.90;;;;;;6082626;23;20216;-72
2023/04/07 08:22:54;;;;;;;10.07;9.18;;;10.70;99.90;;;;;;6089096;23;20262;-72
2023/04/07 08:25:22;;;;;;;8.27;7.57;;;11.00;99.90;;;;;;6091230;23;20240;-73
2023/04/07 08:27:49;;;;;;;8.07;7.30;;;11.40;99.90;;;;;;6091934;23;20515;-72
2023/04/07 08:30:16;;;;;;;7.73;6.90;;;11.70;99.90;;;;;;6071854;23;20444;-72
2023/04/07 08:32:45;;;;;;;8.27;7.57;;;12.30;99.90;;;;;;6080657;23;20437;-73
2023/04/07 08:35:12;;;;;;;6.70;6.20;;;12.60;99.90;;;;;;6090997;23;20531;-73
2023/04/07 08:37:41;;;;;;;6.57;6.07;;;13.10;99.90;;;;;;6086518;23;20478;-73
2023/04/07 08:40:10;;;;;;;8.63;7.90;;;13.40;99.90;;;;;;6089289;23;20775;-73
2023/04/07 08:42:41;;;;;;;7.80;7.10;;;13.90;99.90;;;;;;6091364;23;20432;-73
2023/04/07 08:45:08;;;;;;;8.10;7.40;;;14.00;99.90;;;;;;6063017;23;20485;-73
2023/04/07 08:47:37;;;;;;;7.47;6.87;;;14.40;99.90;;;;;;6063630;23;20501;-73
2023/04/07 08:50:07;;;;;;;7.63;7.13;;;14.90;99.90;;;;;;6078378;23;20446;-73
2023/04/07 08:52:38;;;;;;;7.60;7.10;;;15.60;99.90;;;;;;6062681;23;20431;-73
2023/04/07 08:55:07;;;;;;;6.87;6.37;;;15.90;99.90;;;;;;6091219;23;20432;-73
2023/04/07 08:57:37;;;;;;;6.83;6.33;;;16.40;99.90;;;;;;6091709;23;20477;-72
2023/04/07 09:00:06;;;;;;;6.40;6.00;;;16.60;99.90;;;;;;6087665;23;20427;-73
2023/04/07 09:02:34;;;;;;;7.77;7.17;;;17.00;99.90;;;;;;6063956;23;20424;-73
2023/04/07 09:05:04;;;;;;;7.30;6.70;;;17.20;99.90;;;;;;6064222;23;20454;-73
2023/04/07 09:07:31;;;;;;;6.60;6.00;;;17.10;99.90;;;;;;6081174;23;20450;-73
2023/04/07 09:09:58;;;;;;;7.13;6.53;;;16.80;99.90;;;;;;6089709;23;20470;-73
2023/04/07 09:12:26;;;;;;;6.70;6.20;;;16.50;99.90;;;;;;6091537;23;20423;-73
2023/04/07 09:14:55;;;;;;;7.40;6.80;;;16.30;99.90;;;;;;6084739;23;20862;-72
2023/04/07 09:17:24;;;;;;;7.30;6.70;;;16.20;99.90;;;;;;6090858;23;20549;-73
2023/04/07 09:19:53;;;;;;;6.67;6.17;;;15.90;99.90;;;;;;6088091;23;20441;-73
2023/04/07 09:22:35;;;;;;;8.27;7.50;;;15.90;99.90;;;;;;6085804;23;20471;-73
2023/04/07 09:25:14;;;;;;;6.77;6.00;;;16.10;99.90;;;;;;6064503;23;20593;-73
2023/04/07 09:27:41;;;;;;;6.90;6.40;;;16.30;99.90;;;;;;6063084;23;20443;-73
2023/04/07 09:30:14;;;;;;;6.57;6.07;;;16.60;99.90;;;;;;6086517;23;20930;-73
2023/04/07 09:32:42;;;;;;;6.80;6.23;;;16.70;99.90;;;;;;6089630;23;20997;-73
2023/04/07 09:35:09;;;;;;;6.27;5.83;;;17.00;99.90;;;;;;6065093;23;20549;-72
2023/04/07 09:37:36;;;;;;;6.47;5.97;;;16.80;99.90;;;;;;6091210;23;20443;-72
2023/04/07 09:40:04;;;;;;;5.80;5.40;;;16.70;99.90;;;;;;6091143;23;20435;-73
2023/04/07 09:42:34;;;;;;;5.40;4.90;;;16.80;99.90;;;;;;6089079;23;20588;-73
2023/04/07 09:45:02;;;;;;;4.87;4.40;;;16.70;99.90;;;;;;6090348;23;20434;-73
2023/04/07 09:47:32;;;;;;;5.23;4.83;;;16.70;99.90;;;;;;6091503;23;20486;-73
2023/04/07 09:50:05;;;;;;;5.67;5.17;;;16.60;99.90;;;;;;6091033;23;20810;-73
2023/04/07 09:52:51;;;;;;;5.93;4.90;;;16.40;99.90;;;;;;6081675;23;20430;-73
2023/04/07 09:55:20;;;;;;;5.10;4.60;;;16.10;99.90;;;;;;6062790;23;20451;-73
2023/04/07 09:57:50;;;;;;;5.20;4.70;;;15.80;99.90;;;;;;6062779;23;20439;-73
2023/04/07 10:00:17;;;;;;;5.40;5.00;;;15.60;99.90;;;;;;6082053;23;20438;-73
2023/04/07 10:02:46;;;;;;;6.37;5.50;;;15.40;99.90;;;;;;6077459;23;20431;-73
2023/04/07 10:05:13;;;;;;;6.10;5.60;;;15.30;99.90;;;;;;6090492;23;20438;-73
2023/04/07 10:07:41;;;;;;;6.17;5.10;;;15.20;99.90;;;;;;6091440;23;20537;-73
2023/04/07 10:10:09;;;;;;;6.37;5.83;;;15.00;99.90;;;;;;6091614;23;20462;-73
2023/04/07 10:12:38;;;;;;;6.90;6.23;;;15.20;99.90;;;;;;6076825;23;20427;-73
2023/04/07 10:15:06;;;;;;;6.60;6.00;;;15.40;99.90;;;;;;6088044;23;20439;-72
2023/04/07 10:17:35;;;;;;;7.70;7.00;;;15.30;99.90;;;;;;6062805;23;20522;-73
2023/04/07 10:20:06;;;;;;;7.13;6.53;;;15.10;99.90;;;;;;6065262;23;20411;-73
2023/04/07 10:22:36;;;;;;;7.50;6.80;;;15.30;99.90;;;;;;6090330;23;20465;-73
2023/04/07 10:25:08;;;;;;;7.50;6.90;;;15.60;99.90;;;;;;6089111;23;20492;-73
2023/04/07 10:27:40;;;;;;;7.00;6.40;;;15.60;99.90;;;;;;6087082;23;20470;-72
2023/04/07 10:30:13;;;;;;;8.00;7.40;;;15.50;99.90;;;;;;6091325;23;20997;-72
2023/04/07 10:32:47;;;;;;;7.13;6.43;;;15.00;99.90;;;;;;6089099;23;20442;-73
2023/04/07 10:35:15;;;;;;;7.43;6.73;;;14.90;99.90;;;;;;6069407;23;20510;-73
2023/04/07 10:38:12;;;;;;;7.00;6.40;;;15.00;99.90;;;;;;6080149;23;21037;-72
2023/04/07 10:40:40;;;;;;;7.47;6.87;;;14.60;99.90;;;;;;6082013;23;20513;-72
2023/04/07 10:43:10;;;;;;;7.67;6.97;;;14.40;99.90;;;;;;6088961;23;20442;-73
2023/04/07 10:45:55;;;;;;;6.90;6.30;;;14.20;99.90;;;;;;6091264;23;20530;-73
2023/04/07 10:48:22;;;;;;;6.73;6.13;;;14.00;99.90;;;;;;6090939;23;20446;-72
2023/04/07 10:51:14;;;;;;;7.03;6.27;;;13.90;99.90;;;;;;6091308;23;20436;-72
2023/04/07 10:54:17;;;;;;;7.40;6.87;;;13.60;99.90;;;;;;6079362;23;20438;-73
2023/04/07 10:57:09;;;;;;;7.50;6.80;;;13.80;99.90;;;;;;6087428;23;20469;-73
2023/04/07 10:59:38;;;;;;;7.50;6.90;;;13.70;99.90;;;;;;6091850;23;20466;-72
2023/04/07 11:02:35;;;;;;;8.10;7.30;;;13.70;99.90;;;;;;6090371;23;20491;-72
2023/04/07 11:05:03;;;;;;;7.93;7.20;;;13.50;99.90;;;;;;6058184;23;20477;-73
2023/04/07 11:07:53;;;;;;;7.23;6.53;;;13.40;99.90;;;;;;6062579;23;20454;-72
2023/04/07 11:10:22;;;;;;;7.37;6.70;;;13.30;99.90;;;;;;6080979;23;20483;-73
2023/04/07 11:13:00;;;;;;;6.63;6.03;;;13.40;99.90;;;;;;6089815;23;20446;-72
2023/04/07 11:15:27;;;;;;;7.80;7.10;;;13.30;99.90;;;;;;6066251;23;20433;-73
2023/04/07 11:18:11;;;;;;;7.00;6.40;;;13.50;99.90;;;;;;6079240;23;20457;-72
2023/04/07 11:20:42;;;;;;;7.27;5.87;;;13.10;99.90;;;;;;6091602;23;20436;-73
2023/04/07 11:23:11;;;;;;;7.27;6.63;;;13.40;99.90;;;;;;6086741;23;20941;-73
2023/04/07 11:25:38;;;;;;;6.60;6.00;;;13.30;99.90;;;;;;6077767;23;20507;-73
2023/04/07 11:28:06;;;;;;;6.20;5.70;;;13.20;99.90;;;;;;6091463;23;20439;-72
2023/04/07 11:30:35;;;;;;;6.27;5.67;;;13.20;99.90;;;;;;6062992;23;20464;-73
2023/04/07 11:33:02;;;;;;;6.03;5.53;;;13.30;99.90;;;;;;6065392;23;20961;-73
2023/04/07 11:35:29;;;;;;;6.10;5.60;;;13.50;99.90;;;;;;6087972;23;20496;-73
2023/04/07 11:38:00;;;;;;;6.77;4.80;;;13.60;99.90;;;;;;6091071;23;20443;-75
2023/04/07 11:40:38;;;;;;;5.40;4.97;;;14.00;99.90;;;;;;6090148;23;20960;-73
2023/04/07 11:43:16;;;;;;;5.43;5.03;;;14.20;99.90;;;;;;6090494;23;20492;-75
2023/04/07 11:45:44;;;;;;;5.07;4.57;;;14.10;99.90;;;;;;6091449;23;20434;-74
2023/04/07 11:48:26;;;;;;;4.77;4.37;;;14.20;99.90;;;;;;6090480;23;20453;-72
2023/04/07 11:50:53;;;;;;;5.17;4.70;;;14.30;99.90;;;;;;6086260;23;20529;-72
2023/04/07 11:53:26;;;;;;;4.63;4.33;;;14.80;99.90;;;;;;6085707;23;20473;-74
2023/04/07 11:56:01;;;;;;;5.07;4.60;;;14.60;99.90;;;;;;6083049;23;20459;-72
2023/04/07 11:58:29;;;;;;;4.83;4.43;;;14.70;99.90;;;;;;6090288;23;20426;-72
2023/04/07 12:00:56;;;;;;;5.00;4.30;;;14.80;99.90;;;;;;6091005;23;20453;-72
2023/04/07 12:03:24;;;;;;;4.70;4.37;;;14.90;99.90;;;;;;6085137;23;20432;-73
2023/04/07 12:05:51;;;;;;;4.27;3.73;;;14.90;99.90;;;;;;6086091;23;20435;-72
2023/04/07 12:08:18;;;;;;;6.27;4.20;;;14.80;99.90;;;;;;6090677;23;20466;-72
2023/04/07 12:10:45;;;;;;;4.50;4.10;;;14.80;99.90;;;;;;6090388;23;20458;-72
2023/04/07 12:13:15;;;;;;;4.40;4.00;;;14.70;99.90;;;;;;6087826;23;20484;-72
2023/04/07 12:15:42;;;;;;;4.37;3.97;;;14.60;99.90;;;;;;6061797;23;21001;-72
2023/04/07 12:18:15;;;;;;;4.13;3.70;;;14.50;99.90;;;;;;6068486;23;20524;-71
2023/04/07 12:20:42;;;;;;;4.57;3.60;;;14.40;99.90;;;;;;6082260;23;20437;-71
2023/04/07 12:23:09;;;;;;;4.43;3.67;;;14.50;99.90;;;;;;6089728;23;20449;-72
2023/04/07 12:25:36;;;;;;;4.00;3.60;;;14.20;99.90;;;;;;6090976;23;20480;-72
2023/04/07 12:28:03;;;;;;;3.30;3.00;;;14.20;99.90;;;;;;6090578;23;20442;-72
2023/04/07 12:30:32;;;;;;;3.47;3.17;;;14.20;99.90;;;;;;6065115;23;20521;-71
2023/04/07 12:32:59;;;;;;;4.03;3.40;;;14.10;99.90;;;;;;6068519;23;20434;-71
2023/04/07 12:35:27;;;;;;;3.90;3.47;;;14.20;99.90;;;;;;6089839;23;20457;-72
2023/04/07 12:37:55;;;;;;;3.83;3.43;;;14.50;99.90;;;;;;6090653;23;20842;-73
2023/04/07 12:40:22;;;;;;;4.10;3.10;;;14.30;99.90;;;;;;6067650;23;20510;-72
2023/04/07 12:42:50;;;;;;;3.53;2.80;;;14.30;99.90;;;;;;6061493;23;20485;-72
2023/04/07 12:45:17;;;;;;;2.70;2.50;;;14.40;99.90;;;;;;6087581;23;20502;-73
2023/04/07 12:47:46;;;;;;;5.60;2.73;;;14.40;99.90;;;;;;6089440;23;20969;-72
2023/04/07 12:50:13;;;;;;;4.17;2.40;;;14.60;99.90;;;;;;6089138;23;20505;-72
2023/04/07 12:52:40;;;;;;;2.43;2.23;;;14.40;99.90;;;;;;6089638;23;20491;-72